createdAt,value
2023-02-07T00:01:21.302Z,84.90
2023-02-07T00:03:48.233Z,84.57
2023-02-07T00:06:20.783Z,84.57
2023-02-07T00:08:47.394Z,84.59
2023-02-07T00:11:16.850Z,84.94
2023-02-07T00:13:44.836Z,84.69
2023-02-07T00:16:11.603Z,84.79
2023-02-07T00:18:40.752Z,85.19
2023-02-07T00:21:16.095Z,85.18
2023-02-07T00:23:43.234Z,84.18
2023-02-07T00:26:10.677Z,84.11
2023-02-07T00:28:37.689Z,83.85
2023-02-07T00:31:06.785Z,84.07
2023-02-07T00:33:35.569Z,83.73
2023-02-07T00:36:04.780Z,84.19
2023-02-07T00:38:31.582Z,83.76
2023-02-07T00:40:57.959Z,84.40
2023-02-07T00:43:29.837Z,83.40
2023-02-07T00:45:59.482Z,84.22
2023-02-07T00:48:27.465Z,85.46
2023-02-07T00:50:54.091Z,84.21
2023-02-07T00:53:20.927Z,83.27
2023-02-07T00:55:47.235Z,83.43
2023-02-07T00:58:14.195Z,82.83
2023-02-07T01:00:40.580Z,82.14
2023-02-07T01:03:06.881Z,82.41
2023-02-07T01:05:34.812Z,83.68
2023-02-07T01:08:01.728Z,82.98
2023-02-07T01:10:28.491Z,83.58
2023-02-07T01:12:55.156Z,82.85
2023-02-07T01:15:22.211Z,82.48
2023-02-07T01:17:48.559Z,82.57
2023-02-07T01:20:15.552Z,83.68
2023-02-07T01:22:41.929Z,83.55
2023-02-07T01:25:09.080Z,82.36
2023-02-07T01:27:36.790Z,83.44
2023-02-07T01:30:04.576Z,83.23
2023-02-07T01:32:33.166Z,83.25
2023-02-07T01:34:59.507Z,81.39
2023-02-07T01:37:25.874Z,83.13
2023-02-07T01:39:52.171Z,82.69
2023-02-07T01:42:18.794Z,82.73
2023-02-07T01:44:47.966Z,81.74
2023-02-07T01:47:20.378Z,81.84
2023-02-07T01:49:49.021Z,82.15
2023-02-07T01:52:19.677Z,82.33
2023-02-07T01:54:51.116Z,82.21
2023-02-07T01:57:20.907Z,83.56
2023-02-07T01:59:49.160Z,82.58
2023-02-07T02:02:18.992Z,82.87
2023-02-07T02:04:45.544Z,82.32
2023-02-07T02:07:14.195Z,82.88
2023-02-07T02:09:40.555Z,83.65
2023-02-07T02:12:41.038Z,84.57
2023-02-07T02:15:14.004Z,85.50
2023-02-07T02:17:43.332Z,86.42
2023-02-07T02:20:34.421Z,86.63
2023-02-07T02:23:22.293Z,85.80
2023-02-07T02:26:21.840Z,86.90
2023-02-07T02:29:24.698Z,87.83
2023-02-07T02:32:25.827Z,87.54
2023-02-07T02:35:18.117Z,86.69
2023-02-07T02:37:50.432Z,85.05
2023-02-07T02:40:25.164Z,85.27
2023-02-07T02:43:32.632Z,86.29
2023-02-07T02:46:07.295Z,85.84
2023-02-07T02:48:35.151Z,84.64
2023-02-07T02:51:02.248Z,84.96
2023-02-07T02:53:28.652Z,84.04
2023-02-07T02:56:23.232Z,84.62
2023-02-07T02:59:11.369Z,84.75
2023-02-07T03:01:37.659Z,85.63
2023-02-07T03:04:50.667Z,87.39
2023-02-07T03:07:33.835Z,86.79
2023-02-07T03:10:31.121Z,86.56
2023-02-07T03:13:09.761Z,88.90
2023-02-07T03:15:55.903Z,88.25
2023-02-07T03:18:31.342Z,86.42
2023-02-07T03:21:05.927Z,87.07
2023-02-07T03:23:33.297Z,87.73
2023-02-07T03:26:01.987Z,87.80
2023-02-07T03:28:31.273Z,88.46
2023-02-07T03:31:00.503Z,88.90
2023-02-07T03:33:27.116Z,88.13
2023-02-07T03:36:00.412Z,88.57
2023-02-07T03:38:27.274Z,88.81
2023-02-07T03:40:59.281Z,88.87
2023-02-07T03:43:29.694Z,88.44
2023-02-07T03:45:56.392Z,87.29
2023-02-07T03:48:23.012Z,87.85
2023-02-07T03:50:51.809Z,87.10
2023-02-07T03:53:19.383Z,87.79
2023-02-07T03:55:45.925Z,87.78
2023-02-07T03:58:12.272Z,87.47
2023-02-07T04:00:38.655Z,88.92
2023-02-07T04:03:05.208Z,89.03
2023-02-07T04:05:31.618Z,87.91
2023-02-07T04:07:57.955Z,88.72
2023-02-07T04:10:24.266Z,89.53
2023-02-07T04:12:50.801Z,89.37
2023-02-07T04:15:17.524Z,89.33
2023-02-07T04:17:43.829Z,88.07
2023-02-07T04:20:10.945Z,87.98
2023-02-07T04:22:37.315Z,89.99
2023-02-07T04:25:04.752Z,89.95
2023-02-07T04:27:31.108Z,90.93
2023-02-07T04:29:58.011Z,90.41
2023-02-07T04:32:24.362Z,89.85
2023-02-07T04:34:50.765Z,89.55
2023-02-07T04:37:17.195Z,89.22
2023-02-07T04:39:43.545Z,87.96
2023-02-07T04:42:09.879Z,88.61
2023-02-07T04:44:36.214Z,88.27
2023-02-07T04:47:02.539Z,89.92
2023-02-07T04:49:29.634Z,88.57
2023-02-07T04:51:56.251Z,88.60
2023-02-07T04:54:22.636Z,88.71
2023-02-07T04:56:49.008Z,87.81
2023-02-07T04:59:15.359Z,88.88
2023-02-07T05:01:41.692Z,90.28
2023-02-07T05:04:08.045Z,91.37
2023-02-07T05:06:34.467Z,90.83
2023-02-07T05:09:00.750Z,91.42
2023-02-07T05:11:27.137Z,90.70
2023-02-07T05:13:53.460Z,90.29
2023-02-07T05:16:19.861Z,90.70
2023-02-07T05:18:46.221Z,90.13
2023-02-07T05:21:12.573Z,89.15
2023-02-07T05:23:39.120Z,90.94
2023-02-07T05:26:05.468Z,90.50
2023-02-07T05:28:31.898Z,90.42
2023-02-07T05:30:58.382Z,90.70
2023-02-07T05:33:24.786Z,91.11
2023-02-07T05:35:51.099Z,90.62
2023-02-07T05:38:19.658Z,91.12
2023-02-07T05:40:47.248Z,91.33
2023-02-07T05:43:14.105Z,92.13
2023-02-07T05:45:40.954Z,90.84
2023-02-07T05:48:08.370Z,90.29
2023-02-07T05:50:34.845Z,92.08
2023-02-07T05:53:06.542Z,91.97
2023-02-07T05:55:33.380Z,91.47
2023-02-07T05:57:59.895Z,90.81
2023-02-07T06:00:26.274Z,91.91
2023-02-07T06:02:53.057Z,91.28
2023-02-07T06:05:24.566Z,93.04
2023-02-07T06:07:51.537Z,92.65
2023-02-07T06:10:18.268Z,92.78
2023-02-07T06:12:44.707Z,93.53
2023-02-07T06:15:11.072Z,93.07
2023-02-07T06:17:37.575Z,91.55
2023-02-07T06:20:04.627Z,92.18
2023-02-07T06:22:31.017Z,91.32
2023-02-07T06:24:57.321Z,93.43
2023-02-07T06:27:23.682Z,93.07
2023-02-07T06:29:50.018Z,92.16
2023-02-07T06:32:16.454Z,92.34
2023-02-07T06:34:42.757Z,91.74
2023-02-07T06:37:09.085Z,92.10
2023-02-07T06:39:35.428Z,93.06
2023-02-07T06:42:01.788Z,92.49
2023-02-07T06:44:28.113Z,93.50
2023-02-07T06:46:54.434Z,94.68
2023-02-07T06:49:20.828Z,94.83
2023-02-07T06:51:47.182Z,94.74
2023-02-07T06:54:13.515Z,94.42
2023-02-07T06:56:39.842Z,95.74
2023-02-07T06:59:06.154Z,94.54
2023-02-07T07:01:32.566Z,94.87
2023-02-07T07:03:58.973Z,94.05
2023-02-07T07:06:25.418Z,93.76
2023-02-07T07:08:51.913Z,94.81
2023-02-07T07:11:18.851Z,94.03
2023-02-07T07:13:45.667Z,95.32
2023-02-07T07:16:12.076Z,94.65
2023-02-07T07:18:39.069Z,94.60
2023-02-07T07:21:06.156Z,94.61
2023-02-07T07:23:32.553Z,93.22
2023-02-07T07:25:58.877Z,92.69
2023-02-07T07:28:25.406Z,95.07
2023-02-07T07:30:51.767Z,95.59
2023-02-07T07:33:18.102Z,95.60
2023-02-07T07:35:44.504Z,95.48
2023-02-07T07:38:10.849Z,94.66
2023-02-07T07:40:37.459Z,94.94
2023-02-07T07:43:03.936Z,95.67
2023-02-07T07:45:39.862Z,94.57
2023-02-07T07:48:06.296Z,95.22
2023-02-07T07:50:32.654Z,93.73
2023-02-07T07:52:58.981Z,92.96
2023-02-07T07:55:25.452Z,95.53
2023-02-07T07:57:53.287Z,94.03
2023-02-07T08:00:19.784Z,93.64
2023-02-07T08:02:46.630Z,93.11
2023-02-07T08:05:13.907Z,93.62
2023-02-07T08:07:40.579Z,93.87
2023-02-07T08:10:06.989Z,93.11
2023-02-07T08:12:33.429Z,93.30
2023-02-07T08:14:59.758Z,93.14
2023-02-07T08:17:26.086Z,91.88
2023-02-07T08:19:52.423Z,91.69
2023-02-07T08:22:18.774Z,92.24
2023-02-07T08:24:45.099Z,93.46
2023-02-07T08:27:11.810Z,93.76
2023-02-07T08:29:38.174Z,92.67
2023-02-07T08:32:05.404Z,91.43
2023-02-07T08:34:37.187Z,91.73
2023-02-07T08:37:08.412Z,91.27
2023-02-07T08:39:37.659Z,91.27
2023-02-07T08:42:08.126Z,90.01
2023-02-07T08:44:35.954Z,89.37
2023-02-07T08:47:03.430Z,88.02
2023-02-07T08:49:30.396Z,86.97
2023-02-07T08:51:56.812Z,86.64
2023-02-07T08:54:23.126Z,86.41
2023-02-07T08:56:49.428Z,86.77
2023-02-07T08:59:15.732Z,85.55
2023-02-07T09:01:42.029Z,85.34
2023-02-07T09:04:09.718Z,85.48
2023-02-07T09:06:36.081Z,85.06
2023-02-07T09:09:02.579Z,85.12
2023-02-07T09:11:28.967Z,84.70
2023-02-07T09:13:55.342Z,84.36
2023-02-07T09:16:23.155Z,83.84
2023-02-07T09:18:50.394Z,83.55
2023-02-07T09:21:18.337Z,83.32
2023-02-07T09:23:44.753Z,83.09
2023-02-07T09:26:17.063Z,83.38
2023-02-07T09:28:43.524Z,83.44
2023-02-07T09:31:12.309Z,83.04
2023-02-07T09:33:39.760Z,81.54
2023-02-07T09:36:06.732Z,82.06
2023-02-07T09:38:33.071Z,80.97
2023-02-07T09:40:59.865Z,80.46
2023-02-07T09:43:45.019Z,81.32
2023-02-07T09:46:51.916Z,80.43
2023-02-07T09:49:38.873Z,80.34
2023-02-07T09:52:11.947Z,80.07
2023-02-07T09:54:45.005Z,80.39
2023-02-07T09:57:31.192Z,80.75
2023-02-07T10:00:04.838Z,79.72
2023-02-07T10:02:45.921Z,79.08
2023-02-07T10:05:19.296Z,78.51
2023-02-07T10:07:47.481Z,76.81
2023-02-07T10:10:38.251Z,76.42
2023-02-07T10:13:19.760Z,76.23
2023-02-07T10:16:10.972Z,76.28
2023-02-07T10:19:04.096Z,73.47
2023-02-07T10:21:49.217Z,74.20
2023-02-07T10:24:28.679Z,73.15
2023-02-07T10:27:03.995Z,71.22
2023-02-07T10:29:45.539Z,71.15
2023-02-07T10:32:21.248Z,69.10
2023-02-07T10:34:47.729Z,68.76
2023-02-07T10:37:20.518Z,68.86
2023-02-07T10:40:00.956Z,66.69
2023-02-07T10:42:28.743Z,67.82
2023-02-07T10:44:55.079Z,68.49
2023-02-07T10:47:23.177Z,67.45
2023-02-07T10:49:53.112Z,65.97
2023-02-07T10:52:44.074Z,67.00
2023-02-07T10:55:13.765Z,64.11
2023-02-07T10:57:42.087Z,61.84
2023-02-07T11:00:30.724Z,61.51
2023-02-07T11:03:07.003Z,59.80
2023-02-07T11:05:37.351Z,59.13
2023-02-07T11:08:25.645Z,57.83
2023-02-07T11:10:55.086Z,58.22
2023-02-07T11:13:24.578Z,56.49
2023-02-07T11:16:01.409Z,55.33
2023-02-07T11:18:45.063Z,53.00
2023-02-07T11:21:38.098Z,52.96
2023-02-07T11:24:35.668Z,52.20
2023-02-07T11:27:05.685Z,52.56
2023-02-07T11:29:37.998Z,50.83
2023-02-07T11:32:05.505Z,50.12
2023-02-07T11:35:05.756Z,50.14
2023-02-07T11:37:37.545Z,50.32
2023-02-07T11:40:19.163Z,48.50
2023-02-07T11:43:01.303Z,48.19
2023-02-07T11:45:28.946Z,47.10
2023-02-07T11:47:57.602Z,46.47
2023-02-07T11:50:30.736Z,47.96
2023-02-07T11:52:59.617Z,47.37
2023-02-07T11:55:33.011Z,45.70
2023-02-07T11:58:18.213Z,45.75
2023-02-07T12:00:45.144Z,46.01
2023-02-07T12:03:26.415Z,47.14
2023-02-07T12:05:55.404Z,46.75
2023-02-07T12:08:24.885Z,47.28
2023-02-07T12:10:57.313Z,45.81
2023-02-07T12:13:39.093Z,45.56
2023-02-07T12:16:09.524Z,44.21
2023-02-07T12:18:47.694Z,45.86
2023-02-07T12:21:21.703Z,45.88
2023-02-07T12:23:57.850Z,45.88
2023-02-07T12:26:29.268Z,45.71
2023-02-07T12:29:21.892Z,45.51
2023-02-07T12:32:07.334Z,44.65
2023-02-07T12:34:54.258Z,42.80
2023-02-07T12:37:41.999Z,44.19
2023-02-07T12:40:26.426Z,43.24
2023-02-07T12:43:01.623Z,42.81
2023-02-07T12:45:56.792Z,41.58
2023-02-07T12:48:54.028Z,41.46
2023-02-07T12:51:47.723Z,41.94
2023-02-07T12:54:29.905Z,42.95
2023-02-07T12:57:10.773Z,44.49
2023-02-07T12:59:52.150Z,47.15
2023-02-07T13:02:29.372Z,49.01
2023-02-07T13:05:22.111Z,50.71
2023-02-07T13:08:12.599Z,51.85
2023-02-07T13:11:04.371Z,52.82
2023-02-07T13:13:55.668Z,52.16
2023-02-07T13:16:31.456Z,53.28
2023-02-07T13:19:07.772Z,53.56
2023-02-07T13:21:54.079Z,52.89
2023-02-07T13:24:24.452Z,52.50
2023-02-07T13:27:17.394Z,52.54
2023-02-07T13:29:46.032Z,53.84
2023-02-07T13:32:21.729Z,52.80
2023-02-07T13:34:56.980Z,54.62
2023-02-07T13:37:34.015Z,53.53
2023-02-07T13:40:20.911Z,53.42
2023-02-07T13:43:05.463Z,52.70
2023-02-07T13:45:55.080Z,52.28
2023-02-07T13:48:37.730Z,51.52
2023-02-07T13:51:21.979Z,50.82
2023-02-07T13:54:09.100Z,51.09
2023-02-07T13:56:55.111Z,51.71
2023-02-07T13:59:38.936Z,50.08
2023-02-07T14:02:14.620Z,49.64
2023-02-07T14:04:54.940Z,49.77
2023-02-07T14:07:29.616Z,50.18
2023-02-07T14:09:58.463Z,50.71
2023-02-07T14:12:26.507Z,50.70
2023-02-07T14:15:02.586Z,49.87
2023-02-07T14:17:29.465Z,49.97
2023-02-07T14:20:00.239Z,50.12
2023-02-07T14:22:28.972Z,50.14
2023-02-07T14:24:58.026Z,50.24
2023-02-07T14:28:02.787Z,49.85
2023-02-07T14:30:56.803Z,49.25
2023-02-07T14:33:32.827Z,50.11
2023-02-07T14:36:05.251Z,49.80
2023-02-07T14:38:43.060Z,49.57
2023-02-07T14:41:13.365Z,50.87
2023-02-07T14:44:07.680Z,52.00
2023-02-07T14:46:48.268Z,52.42
2023-02-07T14:49:38.190Z,51.37
2023-02-07T14:52:08.844Z,51.43
2023-02-07T14:55:04.397Z,51.03
2023-02-07T14:57:43.086Z,51.58
2023-02-07T15:00:15.230Z,52.75
2023-02-07T15:02:54.698Z,53.42
2023-02-07T15:05:33.845Z,53.04
2023-02-07T15:08:03.222Z,52.25
2023-02-07T15:10:32.704Z,52.36
2023-02-07T15:12:59.663Z,51.16
2023-02-07T15:15:28.387Z,52.23
2023-02-07T15:17:59.520Z,52.45
2023-02-07T15:20:32.717Z,52.12
2023-02-07T15:23:01.868Z,52.58
2023-02-07T15:25:30.620Z,53.10
2023-02-07T15:28:26.776Z,52.27
2023-02-07T15:31:04.773Z,52.52
2023-02-07T15:33:36.702Z,52.81
2023-02-07T15:36:25.712Z,52.01
2023-02-07T15:38:52.361Z,52.65
2023-02-07T15:41:18.736Z,52.36
2023-02-07T15:44:02.071Z,52.42
2023-02-07T15:46:54.538Z,52.78
2023-02-07T15:49:40.540Z,53.01
2023-02-07T15:52:24.793Z,53.59
2023-02-07T15:54:53.491Z,54.36
2023-02-07T15:57:30.179Z,54.46
2023-02-07T16:00:02.418Z,54.49
2023-02-07T16:02:47.163Z,54.47
2023-02-07T16:05:38.703Z,54.92
2023-02-07T16:08:08.848Z,55.83
2023-02-07T16:10:35.262Z,55.38
2023-02-07T16:13:03.472Z,56.29
2023-02-07T16:15:33.443Z,56.32
2023-02-07T16:18:01.510Z,56.03
2023-02-07T16:20:29.701Z,56.02
2023-02-07T16:22:59.125Z,56.35
2023-02-07T16:25:29.309Z,56.85
2023-02-07T16:27:55.848Z,56.66
2023-02-07T16:30:31.320Z,56.72
2023-02-07T16:32:57.602Z,57.17
2023-02-07T16:35:26.305Z,58.17
2023-02-07T16:37:53.804Z,58.81
2023-02-07T16:40:22.327Z,59.30
2023-02-07T16:42:49.848Z,59.09
2023-02-07T16:45:21.671Z,60.66
2023-02-07T16:47:48.142Z,60.39
2023-02-07T16:50:20.238Z,60.01
2023-02-07T16:52:49.256Z,60.42
2023-02-07T16:55:17.186Z,60.84
2023-02-07T16:57:45.176Z,60.91
2023-02-07T17:00:21.932Z,61.07
2023-02-07T17:02:50.328Z,61.55
2023-02-07T17:05:18.137Z,61.34
2023-02-07T17:07:44.616Z,61.64
2023-02-07T17:10:21.119Z,63.76
2023-02-07T17:12:51.992Z,63.97
2023-02-07T17:15:18.775Z,64.64
2023-02-07T17:17:45.316Z,64.70
2023-02-07T17:20:24.462Z,64.20
2023-02-07T17:22:51.545Z,64.39
2023-02-07T17:25:19.923Z,65.98
2023-02-07T17:27:46.287Z,65.89
2023-02-07T17:30:24.897Z,65.81
2023-02-07T17:32:51.779Z,66.27
2023-02-07T17:35:19.155Z,65.41
2023-02-07T17:37:45.535Z,66.07
2023-02-07T17:40:26.724Z,66.71
2023-02-07T17:42:53.652Z,66.97
2023-02-07T17:45:20.250Z,67.59
2023-02-07T17:47:46.936Z,66.32
2023-02-07T17:50:22.721Z,66.58
2023-02-07T17:52:49.162Z,68.48
2023-02-07T17:55:16.378Z,67.11
2023-02-07T17:57:43.553Z,68.59
2023-02-07T18:00:17.693Z,68.06
2023-02-07T18:02:47.159Z,67.92
2023-02-07T18:05:14.231Z,68.44
2023-02-07T18:07:40.626Z,69.35
2023-02-07T18:10:09.603Z,69.64
2023-02-07T18:12:37.171Z,69.16
2023-02-07T18:15:05.070Z,68.89
2023-02-07T18:17:31.528Z,68.62
2023-02-07T18:19:57.893Z,69.16
2023-02-07T18:22:24.220Z,69.02
2023-02-07T18:24:50.541Z,68.66
2023-02-07T18:27:18.369Z,69.31
2023-02-07T18:29:45.739Z,68.82
2023-02-07T18:32:12.422Z,71.77
2023-02-07T18:34:39.839Z,71.53
2023-02-07T18:37:06.521Z,71.47
2023-02-07T18:39:33.052Z,73.68
2023-02-07T18:41:59.520Z,73.10
2023-02-07T18:44:25.805Z,71.37
2023-02-07T18:46:52.158Z,71.51
2023-02-07T18:49:18.546Z,72.77
2023-02-07T18:51:44.872Z,72.32
2023-02-07T18:54:11.212Z,72.03
2023-02-07T18:56:37.715Z,71.82
2023-02-07T18:59:04.943Z,71.75
2023-02-07T19:01:31.599Z,72.28
2023-02-07T19:04:01.288Z,73.13
2023-02-07T19:06:31.526Z,73.06
2023-02-07T19:08:58.713Z,73.01
2023-02-07T19:11:26.397Z,72.81
2023-02-07T19:13:52.806Z,74.18
2023-02-07T19:16:22.652Z,72.97
2023-02-07T19:18:49.732Z,72.66
2023-02-07T19:21:21.565Z,72.57
2023-02-07T19:23:47.964Z,72.82
2023-02-07T19:26:14.394Z,71.95
2023-02-07T19:28:40.924Z,71.62
2023-02-07T19:31:10.739Z,71.90
2023-02-07T19:33:37.116Z,72.00
2023-02-07T19:36:08.564Z,71.57
2023-02-07T19:38:35.492Z,71.63
2023-02-07T19:41:02.321Z,73.77
2023-02-07T19:43:28.675Z,74.36
2023-02-07T19:45:55.357Z,74.22
2023-02-07T19:48:21.839Z,74.73
2023-02-07T19:50:48.439Z,74.69
2023-02-07T19:53:16.044Z,75.04
2023-02-07T19:55:42.445Z,75.17
2023-02-07T19:58:08.786Z,74.77
2023-02-07T20:00:35.083Z,74.22
2023-02-07T20:03:01.412Z,74.72
2023-02-07T20:05:27.848Z,74.36
2023-02-07T20:07:54.339Z,75.55
2023-02-07T20:10:20.829Z,76.06
2023-02-07T20:12:48.225Z,76.01
2023-02-07T20:15:14.794Z,76.39
2023-02-07T20:17:41.455Z,77.09
2023-02-07T20:20:08.147Z,76.47
2023-02-07T20:22:34.873Z,76.28
2023-02-07T20:25:01.661Z,75.83
2023-02-07T20:27:27.981Z,76.85
2023-02-07T20:29:54.321Z,76.99
2023-02-07T20:32:20.741Z,77.48
2023-02-07T20:34:47.219Z,76.92
2023-02-07T20:37:13.540Z,76.31
2023-02-07T20:39:39.857Z,77.44
2023-02-07T20:42:06.193Z,76.80
2023-02-07T20:44:32.532Z,77.19
2023-02-07T20:47:00.319Z,77.08
2023-02-07T20:49:29.473Z,77.85
2023-02-07T20:51:57.606Z,77.86
2023-02-07T20:54:26.804Z,78.31
2023-02-07T20:56:54.613Z,78.31
2023-02-07T20:59:32.725Z,77.42
2023-02-07T21:01:59.538Z,76.19
2023-02-07T21:04:27.038Z,77.61
2023-02-07T21:06:54.015Z,77.87
2023-02-07T21:09:20.426Z,78.60
2023-02-07T21:11:49.643Z,78.98
2023-02-07T21:14:25.640Z,80.29
2023-02-07T21:16:57.715Z,80.47
2023-02-07T21:19:25.436Z,79.51
2023-02-07T21:21:52.368Z,80.28
2023-02-07T21:24:19.157Z,79.61
2023-02-07T21:26:48.703Z,80.07
2023-02-07T21:29:15.182Z,79.99
2023-02-07T21:31:41.602Z,79.67
2023-02-07T21:34:09.557Z,79.14
2023-02-07T21:36:37.957Z,78.93
2023-02-07T21:39:10.392Z,78.39
2023-02-07T21:41:39.378Z,77.95
2023-02-07T21:44:06.153Z,78.42
2023-02-07T21:46:34.838Z,78.74
2023-02-07T21:49:04.270Z,78.44
2023-02-07T21:51:32.552Z,79.23
2023-02-07T21:53:59.906Z,79.94
2023-02-07T21:56:29.376Z,79.87
2023-02-07T21:58:58.226Z,80.93
2023-02-07T22:01:25.447Z,80.98
2023-02-07T22:03:54.372Z,80.15
2023-02-07T22:06:22.329Z,80.57
2023-02-07T22:08:51.299Z,79.82
2023-02-07T22:11:19.335Z,81.50
2023-02-07T22:13:47.219Z,80.98
2023-02-07T22:16:15.647Z,80.73
2023-02-07T22:18:42.690Z,79.64
2023-02-07T22:21:15.743Z,79.85
2023-02-07T22:23:42.604Z,80.17
2023-02-07T22:26:09.419Z,80.42
2023-02-07T22:28:37.980Z,81.44
2023-02-07T22:31:23.351Z,81.65
2023-02-07T22:33:51.183Z,84.01
2023-02-07T22:36:23.607Z,82.21
2023-02-07T22:38:50.740Z,81.27
2023-02-07T22:41:17.746Z,81.99
2023-02-07T22:43:44.673Z,81.37
2023-02-07T22:46:16.207Z,80.72
2023-02-07T22:48:43.540Z,81.40
2023-02-07T22:51:21.590Z,81.26
2023-02-07T22:53:49.344Z,81.32
2023-02-07T22:56:15.871Z,81.39
2023-02-07T22:58:42.463Z,81.99
2023-02-07T23:01:19.403Z,82.96
2023-02-07T23:03:45.814Z,82.26
2023-02-07T23:06:12.172Z,81.88
2023-02-07T23:08:38.480Z,82.64
2023-02-07T23:11:09.806Z,82.49
2023-02-07T23:13:36.427Z,81.20
2023-02-07T23:16:03.629Z,80.96
2023-02-07T23:18:30.050Z,81.60
2023-02-07T23:20:56.686Z,81.99
2023-02-07T23:23:23.552Z,82.21
2023-02-07T23:25:49.875Z,82.66
2023-02-07T23:28:16.284Z,83.21
2023-02-07T23:30:43.105Z,82.29
2023-02-07T23:33:10.165Z,82.51
2023-02-07T23:35:36.833Z,82.08
2023-02-07T23:38:03.269Z,82.45
2023-02-07T23:40:29.854Z,82.68
2023-02-07T23:42:56.197Z,82.96
2023-02-07T23:45:22.557Z,82.27
2023-02-07T23:47:48.862Z,81.37
2023-02-07T23:50:15.334Z,84.02
2023-02-07T23:52:41.651Z,82.94
2023-02-07T23:55:08.042Z,80.99
2023-02-07T23:57:34.405Z,82.15
